Time;durP1;ratioP1;P1;durP2;ratioP2;P2;SDS_P1;SDS_P2;PMS_P1;PMS_P2;Temp;Humidity;BMP_temperature;BMP_pressure;BME280_temperature;BME280_humidity;BME280_pressure;Samples;Min_cycle;Max_cycle;Signal;HPM_P1;HPM_P2
2021/10/29 00:01:45;;;;;;;;;20.50;17.00;;;;;;;;5037323;28;46341;-68
2021/10/29 00:04:11;;;;;;;;;15.75;13.75;;;;;;;;5037773;28;45245;-68
2021/10/29 00:06:36;;;;;;;;;21.25;17.25;;;;;;;;5035818;28;45197;-68
2021/10/29 00:09:02;;;;;;;;;15.25;14.75;;;;;;;;5037391;28;45258;-70
2021/10/29 00:11:28;;;;;;;;;17.50;16.50;;;;;;;;5036399;28;46051;-66
2021/10/29 00:13:53;;;;;;;;;20.00;16.25;;;;;;;;5037019;28;45244;-67
2021/10/29 00:16:18;;;;;;;;;21.00;17.50;;;;;;;;5037258;28;45384;-68
2021/10/29 00:18:43;;;;;;;;;17.75;15.50;;;;;;;;5035966;28;45567;-67
2021/10/29 00:21:08;;;;;;;;;16.50;14.25;;;;;;;;5036510;28;46484;-68
2021/10/29 00:23:34;;;;;;;;;19.75;17.00;;;;;;;;5036819;28;45273;-62
2021/10/29 00:25:59;;;;;;;;;21.75;17.25;;;;;;;;5036933;28;45275;-65
2021/10/29 00:28:25;;;;;;;;;15.00;15.00;;;;;;;;5037062;28;45636;-66
2021/10/29 00:30:50;;;;;;;;;18.00;16.25;;;;;;;;5036691;28;45582;-67
2021/10/29 00:33:16;;;;;;;;;17.50;16.50;;;;;;;;5037120;28;45295;-66
2021/10/29 00:35:42;;;;;;;;;21.25;17.75;;;;;;;;5037005;28;45477;-67
2021/10/29 00:38:08;;;;;;;;;18.00;15.00;;;;;;;;5037017;28;45660;-66
2021/10/29 00:40:35;;;;;;;;;17.25;16.00;;;;;;;;5036647;28;45284;-63
2021/10/29 00:43:00;;;;;;;;;23.25;21.00;;;;;;;;5035163;28;45391;-67
2021/10/29 00:45:25;;;;;;;;;17.50;16.50;;;;;;;;5036638;28;45389;-68
2021/10/29 00:47:53;;;;;;;;;20.25;16.50;;;;;;;;5036989;28;45648;-67
2021/10/29 00:50:18;;;;;;;;;18.75;15.00;;;;;;;;5036500;28;46194;-67
2021/10/29 00:52:43;;;;;;;;;22.25;19.75;;;;;;;;5035534;28;45367;-66
2021/10/29 00:55:09;;;;;;;;;18.00;16.50;;;;;;;;5036693;28;45259;-67
2021/10/29 00:57:34;;;;;;;;;16.00;15.75;;;;;;;;5036952;28;45537;-67
2021/10/29 01:00:00;;;;;;;;;17.75;16.75;;;;;;;;5036071;28;46050;-68
2021/10/29 01:02:25;;;;;;;;;19.25;19.25;;;;;;;;5036302;28;45362;-68
2021/10/29 01:04:50;;;;;;;;;20.75;17.75;;;;;;;;5036346;28;45398;-69
2021/10/29 01:07:16;;;;;;;;;22.75;18.00;;;;;;;;5036885;28;45386;-67
2021/10/29 01:09:41;;;;;;;;;19.25;17.25;;;;;;;;5034642;28;47606;-68
2021/10/29 01:12:07;;;;;;;;;19.75;15.25;;;;;;;;5036201;28;45303;-69
2021/10/29 01:14:32;;;;;;;;;16.00;16.00;;;;;;;;5035003;28;45290;-68
2021/10/29 01:16:57;;;;;;;;;21.75;16.75;;;;;;;;5036426;28;45537;-67
2021/10/29 01:19:29;;;;;;;;;20.25;18.25;;;;;;;;5036124;28;45677;-67
2021/10/29 01:21:54;;;;;;;;;19.50;16.50;;;;;;;;5036268;28;45425;-68
2021/10/29 01:24:20;;;;;;;;;19.00;17.25;;;;;;;;5035100;28;45456;-66
2021/10/29 01:26:46;;;;;;;;;17.25;11.00;;;;;;;;5036585;28;45422;-66
2021/10/29 01:29:11;;;;;;;;;21.25;18.25;;;;;;;;5035774;28;46214;-68
2021/10/29 01:31:36;;;;;;;;;17.50;14.25;;;;;;;;5034496;28;45469;-69
2021/10/29 01:34:01;;;;;;;;;14.50;13.75;;;;;;;;5036060;28;45300;-67
2021/10/29 01:36:27;;;;;;;;;17.00;15.25;;;;;;;;5035991;28;45196;-66
2021/10/29 01:38:52;;;;;;;;;22.00;17.00;;;;;;;;5035462;28;46662;-68
2021/10/29 01:41:18;;;;;;;;;20.00;19.00;;;;;;;;5035878;28;45228;-65
2021/10/29 01:43:45;;;;;;;;;16.25;15.00;;;;;;;;5035698;28;45220;-65
2021/10/29 01:46:10;;;;;;;;;17.00;14.50;;;;;;;;5036079;28;45313;-63
2021/10/29 01:48:43;;;;;;;;;16.00;14.25;;;;;;;;5035335;28;45632;-68
2021/10/29 01:51:08;;;;;;;;;14.00;14.00;;;;;;;;5034150;28;45285;-67
2021/10/29 01:53:33;;;;;;;;;17.75;17.00;;;;;;;;5035493;28;45228;-68
2021/10/29 01:55:59;;;;;;;;;19.00;17.75;;;;;;;;5035661;28;45493;-67
2021/10/29 01:58:24;;;;;;;;;19.25;18.00;;;;;;;;5035514;28;46042;-68
2021/10/29 02:00:49;;;;;;;;;18.50;16.75;;;;;;;;5035639;28;45245;-69
2021/10/29 02:03:14;;;;;;;;;16.25;15.50;;;;;;;;5034156;28;45206;-68
2021/10/29 02:05:42;;;;;;;;;18.75;17.75;;;;;;;;5034026;28;45532;-67
2021/10/29 02:08:07;;;;;;;;;15.25;15.25;;;;;;;;5035030;28;46423;-67
2021/10/29 02:10:33;;;;;;;;;14.50;14.00;;;;;;;;5035019;28;45329;-67
2021/10/29 02:12:58;;;;;;;;;18.25;15.50;;;;;;;;5033774;28;45368;-66
2021/10/29 02:15:23;;;;;;;;;19.25;16.25;;;;;;;;5033869;28;45359;-66
2021/10/29 02:17:48;;;;;;;;;18.25;17.00;;;;;;;;5035346;28;45507;-68
2021/10/29 02:20:13;;;;;;;;;16.00;14.25;;;;;;;;5035069;28;45484;-67
2021/10/29 02:22:39;;;;;;;;;16.50;16.00;;;;;;;;5035109;28;45484;-67
2021/10/29 02:25:04;;;;;;;;;13.75;13.75;;;;;;;;5035450;28;45321;-67
2021/10/29 02:27:30;;;;;;;;;16.25;14.50;;;;;;;;5033595;28;46933;-66
2021/10/29 02:29:55;;;;;;;;;15.50;14.75;;;;;;;;5035270;28;45406;-68
2021/10/29 02:32:20;;;;;;;;;15.75;15.00;;;;;;;;5035762;28;45457;-68
2021/10/29 02:34:46;;;;;;;;;16.50;16.25;;;;;;;;5034961;28;45411;-67
2021/10/29 02:37:11;;;;;;;;;14.75;14.50;;;;;;;;5039018;28;46240;-68
2021/10/29 02:39:36;;;;;;;;;18.75;16.00;;;;;;;;5038873;28;45293;-68
2021/10/29 02:42:02;;;;;;;;;20.75;14.50;;;;;;;;5038805;28;45378;-66
2021/10/29 02:44:27;;;;;;;;;14.50;13.25;;;;;;;;5038684;28;45250;-67
2021/10/29 02:46:53;;;;;;;;;20.25;17.50;;;;;;;;5038787;28;45553;-68
2021/10/29 02:49:18;;;;;;;;;15.75;14.00;;;;;;;;5038541;28;45372;-65
2021/10/29 02:51:43;;;;;;;;;19.50;14.50;;;;;;;;5038269;28;45466;-69
2021/10/29 02:54:09;;;;;;;;;14.25;14.25;;;;;;;;5038765;28;45459;-67
2021/10/29 02:56:35;;;;;;;;;18.00;15.25;;;;;;;;5038103;28;45722;-67
2021/10/29 02:59:00;;;;;;;;;14.75;11.25;;;;;;;;5038072;28;45232;-68
2021/10/29 03:01:25;;;;;;;;;13.00;13.00;;;;;;;;5037397;28;45321;-67
2021/10/29 03:03:51;;;;;;;;;14.50;13.75;;;;;;;;5039687;28;45162;-68
2021/10/29 03:06:16;;;;;;;;;15.00;13.50;;;;;;;;5038305;28;45429;-68
2021/10/29 03:08:41;;;;;;;;;13.00;13.00;;;;;;;;5038096;28;45343;-68
2021/10/29 03:11:06;;;;;;;;;15.75;11.00;;;;;;;;5038432;28;45252;-66
2021/10/29 03:13:31;;;;;;;;;16.50;13.75;;;;;;;;5036990;28;45419;-66
2021/10/29 03:15:57;;;;;;;;;12.75;12.75;;;;;;;;5037851;28;45532;-63
2021/10/29 03:18:22;;;;;;;;;14.50;14.50;;;;;;;;5038207;28;45412;-66
2021/10/29 03:20:48;;;;;;;;;15.25;12.00;;;;;;;;5037730;28;45426;-67
2021/10/29 03:23:14;;;;;;;;;12.75;12.75;;;;;;;;5036585;28;45447;-67
2021/10/29 03:25:40;;;;;;;;;13.50;12.00;;;;;;;;5037576;28;46602;-66
2021/10/29 03:28:06;;;;;;;;;12.75;12.50;;;;;;;;5037580;28;45468;-67
2021/10/29 03:30:31;;;;;;;;;15.25;12.75;;;;;;;;5037763;28;45572;-68
2021/10/29 03:32:57;;;;;;;;;17.50;13.00;;;;;;;;5038250;28;45526;-66
2021/10/29 03:35:22;;;;;;;;;14.25;13.50;;;;;;;;5036252;28;48044;-70
2021/10/29 03:45:22;;;;;;;;;13.75;12.00;;;;;;;;5037580;28;46082;-67
2021/10/29 03:47:54;;;;;;;;;15.00;13.75;;;;;;;;5036487;28;45232;-68
2021/10/29 03:50:25;;;;;;;;;14.25;12.25;;;;;;;;5037339;28;45381;-68
2021/10/29 03:55:42;;;;;;;;;12.25;12.00;;;;;;;;5036944;28;45952;-72
2021/10/29 03:58:07;;;;;;;;;13.25;12.00;;;;;;;;5037308;28;45269;-71
2021/10/29 04:00:33;;;;;;;;;12.25;12.00;;;;;;;;5037065;28;45263;-74
2021/10/29 04:03:03;;;;;;;;;15.00;12.50;;;;;;;;5038190;28;45337;-70
2021/10/29 04:05:29;;;;;;;;;11.50;11.25;;;;;;;;5037530;28;45358;-73
2021/10/29 04:07:54;;;;;;;;;15.00;11.75;;;;;;;;5037492;28;45370;-73
2021/10/29 04:10:23;;;;;;;;;15.75;12.50;;;;;;;;5037120;28;45388;-73
2021/10/29 04:12:49;;;;;;;;;15.25;12.00;;;;;;;;5037335;28;45252;-73
2021/10/29 04:15:14;;;;;;;;;17.50;12.50;;;;;;;;5036833;28;45587;-73
2021/10/29 04:17:39;;;;;;;;;10.50;9.75;;;;;;;;5035668;28;45498;-67
2021/10/29 04:20:04;;;;;;;;;13.00;12.25;;;;;;;;5037224;28;45380;-68
2021/10/29 04:22:30;;;;;;;;;14.25;14.25;;;;;;;;5037455;28;45245;-68
2021/10/29 04:24:55;;;;;;;;;13.50;12.25;;;;;;;;5037138;28;45375;-67
2021/10/29 04:27:23;;;;;;;;;14.50;13.50;;;;;;;;5036543;28;45381;-68
2021/10/29 04:29:50;;;;;;;;;13.25;12.00;;;;;;;;5036838;28;45316;-64
2021/10/29 04:32:15;;;;;;;;;13.00;11.50;;;;;;;;5036740;28;45633;-72
2021/10/29 04:34:41;;;;;;;;;12.50;12.50;;;;;;;;5036674;28;46278;-74
2021/10/29 04:37:06;;;;;;;;;13.50;13.50;;;;;;;;5036677;28;45343;-70
2021/10/29 04:39:31;;;;;;;;;12.75;12.00;;;;;;;;5036905;28;45335;-73
2021/10/29 04:41:57;;;;;;;;;13.75;11.50;;;;;;;;5038024;28;45325;-74
2021/10/29 04:44:22;;;;;;;;;13.75;12.75;;;;;;;;5038102;28;45525;-72
2021/10/29 04:46:48;;;;;;;;;17.50;15.25;;;;;;;;5038024;28;45378;-73
2021/10/29 04:49:14;;;;;;;;;17.50;14.00;;;;;;;;5037047;28;45355;-70
2021/10/29 04:51:39;;;;;;;;;13.00;13.00;;;;;;;;5036639;28;45522;-73
2021/10/29 04:54:04;;;;;;;;;12.25;11.50;;;;;;;;5036327;28;46624;-73
2021/10/29 04:56:29;;;;;;;;;14.50;13.00;;;;;;;;5036965;28;45246;-74
2021/10/29 04:58:55;;;;;;;;;16.50;13.00;;;;;;;;5036683;28;45741;-69
2021/10/29 05:01:20;;;;;;;;;13.25;11.00;;;;;;;;5036695;28;45524;-68
2021/10/29 05:03:46;;;;;;;;;14.00;12.00;;;;;;;;5036294;28;45408;-68
2021/10/29 05:06:11;;;;;;;;;14.25;13.50;;;;;;;;5035940;28;45349;-69
2021/10/29 05:08:38;;;;;;;;;11.25;7.50;;;;;;;;5036140;28;45323;-74
2021/10/29 05:11:06;;;;;;;;;15.50;13.00;;;;;;;;5036349;28;45478;-72
2021/10/29 05:13:31;;;;;;;;;12.75;12.00;;;;;;;;5035905;28;46281;-63
2021/10/29 05:15:57;;;;;;;;;12.50;12.50;;;;;;;;5036294;28;45300;-69
2021/10/29 05:18:22;;;;;;;;;14.00;13.25;;;;;;;;5035927;28;45290;-67
2021/10/29 05:20:47;;;;;;;;;12.00;12.00;;;;;;;;5035929;28;45578;-66
2021/10/29 05:23:13;;;;;;;;;14.25;11.25;;;;;;;;5035539;28;45226;-68
2021/10/29 05:25:38;;;;;;;;;16.00;12.75;;;;;;;;5035866;28;45248;-62
2021/10/29 05:28:04;;;;;;;;;17.75;17.00;;;;;;;;5035723;28;45293;-68
2021/10/29 05:30:29;;;;;;;;;16.25;13.75;;;;;;;;5036643;28;45252;-73
2021/10/29 05:32:55;;;;;;;;;17.00;12.50;;;;;;;;5034691;28;47015;-70
2021/10/29 05:35:20;;;;;;;;;12.75;12.25;;;;;;;;5036069;28;45390;-71
2021/10/29 05:37:46;;;;;;;;;10.75;10.00;;;;;;;;5036029;28;45222;-71
2021/10/29 05:40:11;;;;;;;;;13.50;10.75;;;;;;;;5035951;28;45628;-73
2021/10/29 05:42:37;;;;;;;;;17.00;16.75;;;;;;;;5035477;28;45344;-73
2021/10/29 05:45:04;;;;;;;;;16.75;15.25;;;;;;;;5035475;28;45950;-66
2021/10/29 05:47:29;;;;;;;;;13.75;13.00;;;;;;;;5036278;28;45415;-69
2021/10/29 05:49:55;;;;;;;;;14.50;13.00;;;;;;;;5034350;28;45313;-72
2021/10/29 05:52:22;;;;;;;;;15.25;14.00;;;;;;;;5035730;28;46070;-72
2021/10/29 05:57:19;;;;;;;;;13.25;13.00;;;;;;;;5035855;28;45468;-71
2021/10/29 05:59:44;;;;;;;;;17.50;12.25;;;;;;;;5035620;28;45280;-74
2021/10/29 06:02:09;;;;;;;;;17.50;15.00;;;;;;;;5035692;28;46128;-74
2021/10/29 06:04:34;;;;;;;;;13.25;13.25;;;;;;;;5034001;28;45817;-74
2021/10/29 06:07:00;;;;;;;;;16.25;13.50;;;;;;;;5035812;28;45438;-69
2021/10/29 06:09:25;;;;;;;;;11.00;11.00;;;;;;;;5034706;28;45361;-69
2021/10/29 06:11:50;;;;;;;;;14.75;14.00;;;;;;;;5035093;28;46058;-69
2021/10/29 06:14:16;;;;;;;;;14.75;13.50;;;;;;;;5034928;28;45294;-68
2021/10/29 06:16:41;;;;;;;;;14.25;11.50;;;;;;;;5035085;28;45422;-69
2021/10/29 06:19:07;;;;;;;;;15.75;13.75;;;;;;;;5035319;28;45589;-69
2021/10/29 06:21:42;;;;;;;;;12.75;12.00;;;;;;;;5035512;28;46215;-72
2021/10/29 06:24:13;;;;;;;;;13.00;12.75;;;;;;;;5034576;28;45377;-69
2021/10/29 06:26:44;;;;;;;;;11.75;11.00;;;;;;;;5035770;28;45362;-71
2021/10/29 06:29:09;;;;;;;;;16.25;14.50;;;;;;;;5034251;28;45289;-72
2021/10/29 06:31:34;;;;;;;;;19.25;16.50;;;;;;;;5038281;28;46528;-66
2021/10/29 06:34:00;;;;;;;;;17.50;14.75;;;;;;;;5039989;28;45410;-76
2021/10/29 06:36:25;;;;;;;;;14.00;13.25;;;;;;;;5044085;28;45213;-73
2021/10/29 06:38:51;;;;;;;;;16.00;13.75;;;;;;;;5036814;28;45134;-65
2021/10/29 06:41:16;;;;;;;;;14.25;12.75;;;;;;;;5033462;28;47124;-69
2021/10/29 06:44:08;;;;;;;;;16.00;14.25;;;;;;;;5034881;28;45211;-70
2021/10/29 06:59:52;;;;;;;;;15.25;13.75;;;;;;;;5034509;28;45315;-70
2021/10/29 07:40:39;;;;;;;;;15.75;10.75;;;;;;;;5037695;28;45304;-70
2021/10/29 07:43:08;;;;;;;;;13.25;10.50;;;;;;;;5037878;28;45529;-68
2021/10/29 07:45:33;;;;;;;;;11.25;9.50;;;;;;;;5037039;28;45241;-67
2021/10/29 07:47:59;;;;;;;;;18.25;12.25;;;;;;;;5037360;28;45784;-70
2021/10/29 07:50:25;;;;;;;;;13.75;12.00;;;;;;;;5035983;28;45231;-67
2021/10/29 07:52:51;;;;;;;;;13.75;12.50;;;;;;;;5037714;28;45368;-69
2021/10/29 07:55:18;;;;;;;;;12.75;10.50;;;;;;;;5037119;28;45408;-67
2021/10/29 07:57:44;;;;;;;;;11.25;10.00;;;;;;;;5037377;28;45416;-64
2021/10/29 08:00:10;;;;;;;;;11.25;11.25;;;;;;;;5037288;28;45472;-65
2021/10/29 08:02:36;;;;;;;;;12.00;11.50;;;;;;;;5037657;28;45311;-68
2021/10/29 08:05:01;;;;;;;;;13.00;13.00;;;;;;;;5037508;28;46532;-69
2021/10/29 08:07:30;;;;;;;;;13.25;8.00;;;;;;;;5037552;28;45439;-71
2021/10/29 08:09:55;;;;;;;;;13.50;10.00;;;;;;;;5037306;28;45432;-65
2021/10/29 08:12:21;;;;;;;;;10.50;8.75;;;;;;;;5037096;28;45469;-67
2021/10/29 08:14:47;;;;;;;;;9.75;9.75;;;;;;;;5036824;28;45382;-64
2021/10/29 08:17:13;;;;;;;;;11.25;10.50;;;;;;;;5037010;28;45315;-69
2021/10/29 08:19:38;;;;;;;;;12.50;11.50;;;;;;;;5037046;28;45433;-69
2021/10/29 08:22:05;;;;;;;;;13.00;11.50;;;;;;;;5036848;28;45676;-66
2021/10/29 08:24:30;;;;;;;;;12.75;10.00;;;;;;;;5036545;28;46411;-67
2021/10/29 08:26:56;;;;;;;;;9.25;9.00;;;;;;;;5036832;28;45382;-69
2021/10/29 08:29:25;;;;;;;;;14.50;9.75;;;;;;;;5036685;28;45384;-69
2021/10/29 08:31:51;;;;;;;;;10.25;9.75;;;;;;;;5037044;28;45249;-63
2021/10/29 08:34:17;;;;;;;;;17.25;17.25;;;;;;;;5035977;28;46063;-67
2021/10/29 08:36:44;;;;;;;;;8.75;7.00;;;;;;;;5036589;28;45312;-63
2021/10/29 08:39:09;;;;;;;;;9.75;9.25;;;;;;;;5018904;28;45444;-64
2021/10/29 08:41:36;;;;;;;;;11.00;10.00;;;;;;;;5036482;28;45432;-67
2021/10/29 08:44:01;;;;;;;;;9.75;8.00;;;;;;;;5036395;28;47425;-63
2021/10/29 08:46:29;;;;;;;;;8.75;8.00;;;;;;;;5034751;28;45427;-70
2021/10/29 08:48:57;;;;;;;;;9.25;9.00;;;;;;;;5036793;28;45237;-69
2021/10/29 08:51:22;;;;;;;;;11.00;8.00;;;;;;;;5035315;28;45253;-71
2021/10/29 08:53:47;;;;;;;;;11.00;8.00;;;;;;;;5036362;28;46371;-67
2021/10/29 08:56:13;;;;;;;;;9.25;8.50;;;;;;;;5036763;28;45311;-68
2021/10/29 08:58:57;;;;;;;;;8.25;7.25;;;;;;;;5036815;28;45317;-67
2021/10/29 09:01:22;;;;;;;;;11.50;7.75;;;;;;;;5036592;28;45739;-71
2021/10/29 09:03:49;;;;;;;;;10.00;9.00;;;;;;;;5035871;28;45895;-66
2021/10/29 09:33:48;;;;;;;;;11.75;10.00;;;;;;;;5035823;28;45252;-67
2021/10/29 09:36:23;;;;;;;;;7.50;7.00;;;;;;;;5035395;28;45456;-70
2021/10/29 09:38:59;;;;;;;;;14.00;11.50;;;;;;;;5035289;28;45217;-70
2021/10/29 09:41:24;;;;;;;;;8.00;7.00;;;;;;;;5035370;28;45331;-67
2021/10/29 09:44:10;;;;;;;;;13.50;13.00;;;;;;;;5033861;28;45310;-71
2021/10/29 09:46:45;;;;;;;;;9.25;9.25;;;;;;;;5035922;28;45457;-68
2021/10/29 09:49:14;;;;;;;;;11.00;8.75;;;;;;;;5036295;28;45200;-67
2021/10/29 09:51:50;;;;;;;;;10.25;8.25;;;;;;;;5035153;28;45383;-67
2021/10/29 09:54:19;;;;;;;;;11.75;9.25;;;;;;;;5033833;28;45604;-63
2021/10/29 09:59:10;;;;;;;;;10.50;7.00;;;;;;;;5035402;28;45242;-68
2021/10/29 10:01:36;;;;;;;;;7.25;7.25;;;;;;;;5035207;28;45338;-70
2021/10/29 10:04:02;;;;;;;;;7.00;6.00;;;;;;;;5035664;28;45171;-72
2021/10/29 10:06:29;;;;;;;;;8.00;6.25;;;;;;;;5035712;28;46601;-72
2021/10/29 10:08:55;;;;;;;;;8.00;6.00;;;;;;;;5035047;28;45549;-70
2021/10/29 10:11:23;;;;;;;;;7.00;5.00;;;;;;;;5035151;28;45315;-70
2021/10/29 10:13:48;;;;;;;;;10.25;8.25;;;;;;;;5035206;28;45462;-68
2021/10/29 10:16:14;;;;;;;;;10.50;10.00;;;;;;;;5035550;28;45692;-69
2021/10/29 10:18:40;;;;;;;;;9.00;7.00;;;;;;;;5034915;28;45333;-71
2021/10/29 10:21:09;;;;;;;;;14.50;11.25;;;;;;;;5035439;28;45402;-71
2021/10/29 10:23:38;;;;;;;;;12.25;10.50;;;;;;;;5033506;28;45383;-71
2021/10/29 10:26:21;;;;;;;;;15.25;14.25;;;;;;;;5034623;28;45444;-70
2021/10/29 10:46:07;;;;;;;;;8.00;8.00;;;;;;;;5035247;28;45444;-70
2021/10/29 10:49:07;;;;;;;;;18.50;12.25;;;;;;;;5034800;28;45232;-70
2021/10/29 10:54:03;;;;;;;;;14.00;13.50;;;;;;;;5034500;28;45292;-67
2021/10/29 10:56:52;;;;;;;;;11.75;10.25;;;;;;;;5036354;28;45579;-69
2021/10/29 11:10:58;;;;;;;;;15.25;14.75;;;;;;;;5037196;28;45318;-65
2021/10/29 11:13:25;;;;;;;;;13.75;11.25;;;;;;;;5036101;28;45474;-70
2021/10/29 11:16:04;;;;;;;;;14.75;13.25;;;;;;;;5037248;28;45437;-66
2021/10/29 11:18:32;;;;;;;;;14.25;13.75;;;;;;;;5038201;28;45219;-69
2021/10/29 11:21:20;;;;;;;;;13.25;11.50;;;;;;;;5035722;28;47540;-69
2021/10/29 11:23:53;;;;;;;;;14.25;12.25;;;;;;;;5037328;28;45383;-70
2021/10/29 11:26:51;;;;;;;;;14.50;13.75;;;;;;;;5036601;28;45375;-69
2021/10/29 11:29:16;;;;;;;;;12.25;11.25;;;;;;;;5004731;28;45417;-68
2021/10/29 11:31:43;;;;;;;;;12.25;9.00;;;;;;;;5037451;28;45311;-65
2021/10/29 11:34:13;;;;;;;;;14.50;13.75;;;;;;;;5036137;28;45330;-67
2021/10/29 11:36:39;;;;;;;;;15.75;14.25;;;;;;;;5036987;28;45280;-66
2021/10/29 11:39:06;;;;;;;;;13.00;12.25;;;;;;;;5037552;28;45473;-66
2021/10/29 11:41:32;;;;;;;;;17.50;14.50;;;;;;;;5035789;28;45608;-67
2021/10/29 11:44:04;;;;;;;;;19.00;14.25;;;;;;;;5035661;28;45314;-68
2021/10/29 11:46:31;;;;;;;;;17.00;15.75;;;;;;;;5037602;28;45384;-66
2021/10/29 11:49:02;;;;;;;;;16.50;14.75;;;;;;;;5037231;28;45394;-67
2021/10/29 11:51:28;;;;;;;;;13.50;13.00;;;;;;;;5036802;28;45982;-69
2021/10/29 11:53:58;;;;;;;;;19.75;16.00;;;;;;;;5036920;28;45389;-68
2021/10/29 12:02:05;;;;;;;;;17.00;15.50;;;;;;;;5036943;28;45333;-67
2021/10/29 12:09:48;;;;;;;;;15.50;13.00;;;;;;;;5037046;28;45308;-70
2021/10/29 12:12:17;;;;;;;;;15.50;14.50;;;;;;;;5036916;28;45353;-71
2021/10/29 12:14:45;;;;;;;;;14.75;13.25;;;;;;;;5036519;28;45429;-69
2021/10/29 12:17:16;;;;;;;;;14.00;14.00;;;;;;;;5036920;28;45333;-67
2021/10/29 12:19:42;;;;;;;;;14.25;13.25;;;;;;;;5037089;28;45360;-66
2021/10/29 12:22:24;;;;;;;;;15.25;15.25;;;;;;;;5036133;28;45462;-67
2021/10/29 12:24:53;;;;;;;;;17.25;11.75;;;;;;;;5036921;28;45179;-64
2021/10/29 12:27:33;;;;;;;;;17.25;14.25;;;;;;;;5035353;28;45494;-66
2021/10/29 12:30:04;;;;;;;;;20.25;17.50;;;;;;;;5036573;28;45184;-69
2021/10/29 12:32:46;;;;;;;;;14.75;12.00;;;;;;;;5036021;28;45543;-64
2021/10/29 13:02:34;;;;;;;;;15.00;12.00;;;;;;;;5036031;28;45410;-71
2021/10/29 13:05:00;;;;;;;;;9.25;9.25;;;;;;;;5035737;28;46009;-67
2021/10/29 13:07:26;;;;;;;;;15.75;12.50;;;;;;;;5034850;28;45407;-67
2021/10/29 13:10:02;;;;;;;;;18.50;15.00;;;;;;;;5036731;28;45437;-70
2021/10/29 13:12:37;;;;;;;;;13.75;11.50;;;;;;;;5036519;28;45396;-66
2021/10/29 13:15:03;;;;;;;;;11.00;9.00;;;;;;;;5034210;28;46967;-68
2021/10/29 13:17:33;;;;;;;;;12.25;11.50;;;;;;;;5035863;28;45379;-69
2021/10/29 13:35:45;;;;;;;;;13.25;12.25;;;;;;;;5035537;28;45820;-68
2021/10/29 14:00:03;;;;;;;;;9.00;8.00;;;;;;;;5034776;28;45355;-71
2021/10/29 14:32:32;;;;;;;;;10.25;9.50;;;;;;;;5033612;28;45451;-68
2021/10/29 14:34:57;;;;;;;;;14.50;11.25;;;;;;;;5035005;28;45363;-66
2021/10/29 14:40:13;;;;;;;;;18.75;12.00;;;;;;;;5035032;28;45478;-70
2021/10/29 14:42:51;;;;;;;;;15.25;13.75;;;;;;;;5034537;28;45165;-65
2021/10/29 14:45:23;;;;;;;;;10.25;7.75;;;;;;;;5034581;28;45187;-71
2021/10/29 15:44:06;;;;;;;;;10.25;10.25;;;;;;;;5035616;28;45377;-70
2021/10/29 15:51:42;;;;;;;;;19.00;15.75;;;;;;;;5037452;28;45378;-70
2021/10/29 15:54:10;;;;;;;;;15.25;13.50;;;;;;;;5035702;28;47182;-65
2021/10/29 15:56:49;;;;;;;;;22.50;17.25;;;;;;;;5037063;28;45426;-68
2021/10/29 16:17:29;;;;;;;;;18.50;16.25;;;;;;;;5036797;28;45256;-71
2021/10/29 16:19:54;;;;;;;;;18.25;18.00;;;;;;;;5035570;28;45297;-70
2021/10/29 16:22:26;;;;;;;;;17.25;16.00;;;;;;;;5037049;28;45248;-68
2021/10/29 16:27:37;;;;;;;;;17.50;17.50;;;;;;;;5037297;28;45468;-72
2021/10/29 16:30:02;;;;;;;;;22.75;17.25;;;;;;;;5038016;28;45334;-70
2021/10/29 16:35:13;;;;;;;;;16.00;14.75;;;;;;;;5029612;28;46511;-69
2021/10/29 16:37:38;;;;;;;;;23.50;17.00;;;;;;;;5036562;28;45272;-71
2021/10/29 16:40:04;;;;;;;;;22.75;19.25;;;;;;;;5037347;28;45294;-70
2021/10/29 16:42:29;;;;;;;;;22.50;17.75;;;;;;;;5035144;28;45612;-68
2021/10/29 16:44:55;;;;;;;;;19.25;16.75;;;;;;;;5035945;28;45535;-67
2021/10/29 16:47:21;;;;;;;;;15.25;14.00;;;;;;;;5036754;28;45307;-67
2021/10/29 16:49:47;;;;;;;;;18.50;16.75;;;;;;;;5036738;28;45251;-65
2021/10/29 16:52:12;;;;;;;;;16.00;16.00;;;;;;;;5036548;28;45358;-70
2021/10/29 16:54:37;;;;;;;;;18.75;15.25;;;;;;;;5033652;28;46885;-69
2021/10/29 16:57:02;;;;;;;;;16.25;15.75;;;;;;;;5036396;28;45290;-63
2021/10/29 16:59:28;;;;;;;;;20.25;19.00;;;;;;;;5036198;28;45318;-66
2021/10/29 17:01:53;;;;;;;;;21.75;18.50;;;;;;;;5034533;28;45532;-66
2021/10/29 17:04:18;;;;;;;;;23.00;19.75;;;;;;;;5035828;28;46249;-66
2021/10/29 17:06:43;;;;;;;;;17.00;16.25;;;;;;;;5034471;28;45425;-71
2021/10/29 17:09:09;;;;;;;;;18.75;17.50;;;;;;;;5035872;28;45260;-67
2021/10/29 17:11:34;;;;;;;;;19.75;18.00;;;;;;;;5035979;28;45480;-68
2021/10/29 17:14:00;;;;;;;;;21.00;17.50;;;;;;;;5035312;28;46470;-67
2021/10/29 17:16:25;;;;;;;;;23.25;19.00;;;;;;;;5027786;28;45606;-64
2021/10/29 17:18:51;;;;;;;;;18.25;15.75;;;;;;;;5026510;28;45375;-67
2021/10/29 17:21:16;;;;;;;;;19.25;15.75;;;;;;;;5034519;28;45630;-69
2021/10/29 17:23:41;;;;;;;;;20.25;16.50;;;;;;;;5022617;28;45446;-66
2021/10/29 17:26:06;;;;;;;;;15.25;15.25;;;;;;;;5028540;28;45644;-70
2021/10/29 17:28:32;;;;;;;;;16.00;16.00;;;;;;;;5035131;28;45348;-68
2021/10/29 17:30:57;;;;;;;;;18.00;18.00;;;;;;;;5033327;28;45661;-68
2021/10/29 17:33:22;;;;;;;;;32.50;25.00;;;;;;;;5034340;28;46266;-69
2021/10/29 17:35:48;;;;;;;;;20.00;19.00;;;;;;;;5028691;28;45500;-68
2021/10/29 17:38:14;;;;;;;;;19.00;17.25;;;;;;;;5034621;28;45350;-68
2021/10/29 17:40:39;;;;;;;;;21.00;19.00;;;;;;;;5031721;28;45661;-69
2021/10/29 17:43:05;;;;;;;;;21.75;17.50;;;;;;;;5034494;28;45493;-68
2021/10/29 17:45:30;;;;;;;;;23.25;18.25;;;;;;;;5032708;28;45459;-68
2021/10/29 17:47:55;;;;;;;;;27.50;22.25;;;;;;;;5034461;28;45377;-70
2021/10/29 17:50:21;;;;;;;;;20.00;19.50;;;;;;;;5035073;28;45320;-68
2021/10/29 17:52:46;;;;;;;;;23.75;22.00;;;;;;;;5034136;28;46932;-65
2021/10/29 17:55:14;;;;;;;;;19.00;16.50;;;;;;;;5034095;28;45410;-67
2021/10/29 17:57:39;;;;;;;;;19.00;14.75;;;;;;;;5029891;28;45424;-67
2021/10/29 18:00:07;;;;;;;;;17.75;16.25;;;;;;;;5013121;28;45279;-71
2021/10/29 18:02:32;;;;;;;;;24.50;22.00;;;;;;;;5031399;28;45536;-67
2021/10/29 18:04:59;;;;;;;;;18.50;18.50;;;;;;;;5033876;28;45256;-66
2021/10/29 18:07:27;;;;;;;;;21.75;17.75;;;;;;;;5022130;28;45502;-70
2021/10/29 18:09:53;;;;;;;;;18.75;18.75;;;;;;;;5034636;28;45613;-71
2021/10/29 18:12:18;;;;;;;;;21.25;20.25;;;;;;;;5032799;28;46897;-67
2021/10/29 18:14:44;;;;;;;;;21.25;18.50;;;;;;;;5031311;28;45410;-68
2021/10/29 18:17:10;;;;;;;;;21.00;18.75;;;;;;;;5034289;28;45409;-70
2021/10/29 18:19:36;;;;;;;;;23.75;21.00;;;;;;;;5034319;28;45475;-69
2021/10/29 18:22:02;;;;;;;;;25.75;23.00;;;;;;;;5033546;28;45321;-67
2021/10/29 18:24:27;;;;;;;;;23.25;20.50;;;;;;;;5028934;28;45499;-67
2021/10/29 18:26:56;;;;;;;;;19.25;19.00;;;;;;;;5033864;28;45398;-68
2021/10/29 18:29:22;;;;;;;;;22.75;20.00;;;;;;;;5034285;28;45413;-71
2021/10/29 18:31:47;;;;;;;;;20.00;20.00;;;;;;;;5028627;28;45319;-68
2021/10/29 18:34:12;;;;;;;;;23.50;22.00;;;;;;;;5012723;28;45425;-66
2021/10/29 18:36:38;;;;;;;;;24.50;20.75;;;;;;;;5014319;28;45349;-71
2021/10/29 18:39:03;;;;;;;;;25.00;22.50;;;;;;;;5033313;28;45249;-69
2021/10/29 18:41:32;;;;;;;;;22.50;22.00;;;;;;;;5033467;28;45352;-67
2021/10/29 18:43:58;;;;;;;;;29.50;28.00;;;;;;;;5033578;28;45407;-70
2021/10/29 18:46:23;;;;;;;;;26.50;25.25;;;;;;;;5033769;28;45415;-68
2021/10/29 18:48:50;;;;;;;;;31.50;28.50;;;;;;;;5031483;28;45574;-70
2021/10/29 18:51:16;;;;;;;;;26.50;23.50;;;;;;;;5031817;28;48361;-70
2021/10/29 18:53:41;;;;;;;;;27.25;24.25;;;;;;;;5033359;28;45466;-68
2021/10/29 18:56:06;;;;;;;;;24.25;22.25;;;;;;;;5024343;28;45406;-71
2021/10/29 18:58:31;;;;;;;;;25.50;21.75;;;;;;;;5032417;28;45453;-72
2021/10/29 19:00:58;;;;;;;;;29.75;23.75;;;;;;;;5034915;28;45422;-72
2021/10/29 19:03:23;;;;;;;;;21.50;19.50;;;;;;;;5034739;28;45355;-69
2021/10/29 19:05:48;;;;;;;;;22.50;20.50;;;;;;;;5025634;28;45624;-67
2021/10/29 19:08:13;;;;;;;;;24.00;24.00;;;;;;;;5028308;28;45503;-67
2021/10/29 19:10:38;;;;;;;;;31.75;24.50;;;;;;;;5033141;28;46364;-66
2021/10/29 19:13:04;;;;;;;;;26.25;25.50;;;;;;;;5033892;28;45387;-73
2021/10/29 19:15:29;;;;;;;;;61.75;44.50;;;;;;;;5024087;28;45402;-69
2021/10/29 19:17:55;;;;;;;;;31.50;28.25;;;;;;;;5014236;28;45476;-67
2021/10/29 19:20:20;;;;;;;;;29.75;24.75;;;;;;;;5014295;28;47512;-66
2021/10/29 19:22:46;;;;;;;;;22.75;20.50;;;;;;;;5016389;28;45314;-68
2021/10/29 19:25:11;;;;;;;;;23.00;22.25;;;;;;;;5016242;28;45649;-68
2021/10/29 19:27:40;;;;;;;;;23.25;20.25;;;;;;;;5018017;28;45645;-66
2021/10/29 19:30:06;;;;;;;;;31.00;27.50;;;;;;;;5017837;28;45341;-68
2021/10/29 19:32:31;;;;;;;;;23.50;21.00;;;;;;;;5016280;28;45836;-66
2021/10/29 19:34:57;;;;;;;;;26.00;25.00;;;;;;;;5017776;28;45286;-68
2021/10/29 19:37:25;;;;;;;;;28.00;26.75;;;;;;;;5018093;28;45493;-67